Time;durP1;ratioP1;P1;durP2;ratioP2;P2;SDS_P1;SDS_P2;PMS_P1;PMS_P2;Temp;Humidity;BMP_temperature;BMP_pressure;BME280_temperature;BME280_humidity;BME280_pressure;Samples;Min_cycle;Max_cycle;Signal;HPM_P1;HPM_P2
2023/11/04 00:00:05;;;;;;;3.30;2.37;;;5.80;91.40;;;4.61;99.36;95816.22;4966833;28;20468;-74
2023/11/04 00:02:32;;;;;;;7.83;3.10;;;5.80;91.50;;;4.59;100.00;95804.94;4966075;28;20448;-72
2023/11/04 00:04:59;;;;;;;2.40;2.20;;;5.80;91.50;;;4.66;99.60;95812.84;4963313;28;20465;-72
2023/11/04 00:07:27;;;;;;;3.43;2.87;;;5.80;91.60;;;4.58;100.00;95810.50;4965344;28;20480;-72
2023/11/04 00:09:54;;;;;;;5.93;2.87;;;5.80;91.60;;;4.56;100.00;95808.06;4969322;28;20457;-71
2023/11/04 00:12:22;;;;;;;3.93;2.60;;;5.70;91.80;;;4.50;100.00;95809.81;4965769;28;20450;-72
2023/11/04 00:14:51;;;;;;;5.83;2.90;;;5.70;91.90;;;4.54;100.00;95810.13;4970616;28;20475;-72
2023/11/04 00:17:18;;;;;;;3.77;2.30;;;5.70;92.00;;;4.46;100.00;95791.78;4966053;28;20464;-71
2023/11/04 00:19:45;;;;;;;5.10;2.90;;;5.70;92.20;;;4.52;99.98;95812.22;4972864;28;20856;-73
2023/11/04 00:22:13;;;;;;;7.87;2.37;;;5.70;91.80;;;4.52;100.00;95807.72;4969076;28;20460;-72
2023/11/04 00:24:40;;;;;;;4.13;2.33;;;5.70;92.10;;;4.54;99.83;95816.31;4971481;28;20452;-72
2023/11/04 00:27:07;;;;;;;7.07;2.83;;;5.70;91.90;;;4.46;100.00;95822.00;4965409;28;20506;-72
2023/11/04 00:29:34;;;;;;;5.37;2.40;;;5.60;91.90;;;4.44;100.00;95821.41;4968830;28;20457;-72
2023/11/04 00:32:04;;;;;;;3.80;2.10;;;5.60;92.30;;;4.54;100.00;95821.66;4961145;28;21203;-72
2023/11/04 00:34:32;;;;;;;2.70;2.50;;;5.70;92.20;;;4.58;99.77;95831.91;4966437;28;20522;-72
2023/11/04 00:37:00;;;;;;;4.17;2.40;;;5.70;92.00;;;4.56;100.00;95828.66;4967814;28;20519;-72
2023/11/04 00:39:27;;;;;;;2.70;2.50;;;5.70;91.70;;;4.59;99.77;95833.53;4967767;28;20754;-72
2023/11/04 00:41:54;;;;;;;5.33;2.97;;;5.70;91.80;;;4.57;99.83;95841.78;4966200;28;20461;-72
2023/11/04 00:44:21;;;;;;;3.03;2.33;;;5.70;91.80;;;4.42;100.00;95812.00;4976419;28;20461;-73
2023/11/04 00:46:49;;;;;;;3.40;2.73;;;5.70;91.80;;;4.60;100.00;95840.50;4961071;28;20457;-72
2023/11/04 00:49:17;;;;;;;4.00;2.60;;;5.70;91.70;;;4.60;100.00;95835.16;4968181;28;20566;-71
2023/11/04 00:51:44;;;;;;;4.17;2.63;;;5.80;91.60;;;4.59;99.24;95836.19;4965419;28;20521;-71
2023/11/04 00:54:11;;;;;;;2.90;2.57;;;5.80;91.50;;;4.57;99.61;95843.63;4968838;28;21301;-72
2023/11/04 00:56:38;;;;;;;5.80;2.50;;;5.80;91.30;;;4.53;99.93;95846.78;4968537;28;20452;-72
2023/11/04 00:59:06;;;;;;;3.20;2.53;;;5.70;91.60;;;4.52;99.85;95852.34;4965352;28;20558;-73
2023/11/04 01:01:33;;;;;;;4.77;2.97;;;5.70;91.60;;;4.42;100.00;95849.44;4966826;28;20516;-72
2023/11/04 01:04:00;;;;;;;2.87;2.67;;;5.70;91.50;;;4.07;100.00;95792.16;4966642;28;20459;-72
2023/11/04 01:06:29;;;;;;;3.93;2.60;;;5.60;92.00;;;4.50;100.00;95849.91;4965867;28;20460;-73
2023/11/04 01:08:56;;;;;;;4.83;2.43;;;5.60;92.20;;;4.43;100.00;95851.06;4973458;28;20974;-72
2023/11/04 01:11:23;;;;;;;3.13;2.77;;;5.60;92.20;;;4.39;100.00;95850.72;4967346;28;20528;-72
2023/11/04 01:13:51;;;;;;;2.97;2.40;;;5.50;92.30;;;4.43;100.00;95857.22;4960758;28;20456;-72
2023/11/04 01:16:18;;;;;;;3.23;2.40;;;5.50;92.50;;;4.29;100.00;95851.28;4973559;28;20455;-74
2023/11/04 01:18:45;;;;;;;4.53;3.30;;;5.40;92.40;;;4.34;100.00;95859.41;4969177;28;20480;-73
2023/11/04 01:21:13;;;;;;;5.70;3.03;;;5.50;92.60;;;4.16;100.00;95849.59;4961209;28;20456;-73
2023/11/04 01:23:41;;;;;;;3.30;3.00;;;5.40;92.50;;;4.30;100.00;95852.06;4955768;28;20494;-74
2023/11/04 01:26:09;;;;;;;5.03;3.20;;;5.40;92.90;;;4.15;100.00;95853.31;4956259;28;21367;-74
2023/11/04 01:28:36;;;;;;;5.13;3.10;;;5.40;92.80;;;4.15;100.00;95847.16;4960760;28;20475;-71
2023/11/04 01:31:04;;;;;;;4.70;3.20;;;5.40;92.80;;;4.21;100.00;95847.06;4962123;28;20476;-74
2023/11/04 01:33:31;;;;;;;5.70;3.30;;;5.40;93.10;;;4.22;100.00;95845.19;4970532;28;20536;-71
2023/11/04 01:35:58;;;;;;;6.20;3.17;;;5.40;92.90;;;4.16;100.00;95851.47;4961921;28;20468;-72
2023/11/04 01:38:25;;;;;;;4.87;2.87;;;5.40;92.90;;;4.10;100.00;95847.84;4964655;28;20460;-72
2023/11/04 01:40:55;;;;;;;4.00;2.90;;;5.30;93.30;;;4.11;100.00;95852.13;4965532;28;20464;-74
2023/11/04 01:43:26;;;;;;;3.90;3.50;;;5.30;93.60;;;3.99;100.00;95845.94;4961724;28;20465;-75
2023/11/04 01:46:15;;;;;;;9.53;3.63;;;5.20;93.50;;;3.97;100.00;95844.31;4976707;28;20468;-73
2023/11/04 01:48:43;;;;;;;4.93;3.67;;;5.10;93.90;;;3.96;100.00;95837.31;4966430;28;20578;-73
2023/11/04 01:51:13;;;;;;;5.00;3.13;;;5.10;94.00;;;4.01;100.00;95843.84;4960229;28;20466;-72
2023/11/04 01:53:44;;;;;;;5.90;3.93;;;5.10;94.20;;;3.97;100.00;95849.66;4959984;28;20450;-72
2023/11/04 01:56:14;;;;;;;4.73;3.80;;;5.10;94.20;;;3.91;100.00;95850.56;4976448;28;20905;-73
2023/11/04 01:58:45;;;;;;;5.60;3.50;;;5.10;94.10;;;3.82;100.00;95835.88;4964474;28;20530;-73
2023/11/04 02:01:14;;;;;;;6.03;2.90;;;5.00;94.20;;;3.86;100.00;95847.72;4963565;28;20448;-71
2023/11/04 02:03:41;;;;;;;5.57;3.93;;;5.00;94.70;;;3.78;100.00;95845.38;4967239;28;20463;-72
2023/11/04 02:06:09;;;;;;;5.23;3.80;;;5.00;94.90;;;3.85;100.00;95842.63;4961114;28;21530;-72
2023/11/04 02:08:36;;;;;;;4.63;4.23;;;5.00;95.00;;;3.79;100.00;95847.03;4966759;28;20492;-72
2023/11/04 02:11:04;;;;;;;5.20;3.90;;;4.90;94.80;;;3.74;100.00;95846.88;4961729;28;20453;-73
2023/11/04 02:13:33;;;;;;;5.47;3.80;;;4.90;94.80;;;3.61;100.00;95835.31;4960305;28;20453;-73
2023/11/04 02:16:00;;;;;;;5.00;3.87;;;4.90;95.10;;;3.56;100.00;95842.38;4965050;28;20938;-72
2023/11/04 02:18:28;;;;;;;7.90;4.57;;;4.80;95.20;;;3.59;100.00;95837.41;4966230;28;20809;-72
2023/11/04 02:20:59;;;;;;;10.30;4.97;;;4.80;95.70;;;3.60;100.00;95844.38;4962788;28;20552;-72
2023/11/04 02:23:27;;;;;;;6.37;5.60;;;4.80;95.80;;;3.58;100.00;95846.47;4977577;28;20464;-73
2023/11/04 02:25:54;;;;;;;5.67;5.10;;;4.80;96.10;;;3.55;100.00;95844.22;4961896;28;20564;-73
2023/11/04 02:28:22;;;;;;;6.10;5.07;;;4.80;96.00;;;3.48;100.00;95836.28;4960222;28;20481;-71
2023/11/04 02:30:50;;;;;;;6.60;5.57;;;4.70;96.20;;;3.50;100.00;95834.22;4961783;28;20456;-73
2023/11/04 02:33:17;;;;;;;6.30;5.30;;;4.70;96.10;;;3.43;100.00;95827.34;4944117;28;21041;-73
2023/11/04 02:35:44;;;;;;;7.80;6.00;;;4.70;96.30;;;3.49;100.00;95831.78;4963783;28;20566;-72
2023/11/04 02:38:13;;;;;;;7.33;5.60;;;4.80;96.50;;;3.49;100.00;95837.13;4963520;28;20464;-74
2023/11/04 02:40:40;;;;;;;7.93;5.90;;;4.70;96.40;;;3.46;100.00;95842.91;4964964;28;21392;-71
2023/11/04 02:43:07;;;;;;;9.20;6.00;;;4.70;96.30;;;3.47;100.00;95842.66;4961699;28;20570;-71
2023/11/04 02:45:35;;;;;;;7.63;5.50;;;4.70;96.80;;;3.43;100.00;95843.38;4964147;28;21219;-72
2023/11/04 02:48:02;;;;;;;6.77;5.40;;;4.70;96.70;;;3.46;100.00;95837.56;4978132;28;20900;-72
2023/11/04 02:50:30;;;;;;;7.10;5.97;;;4.70;96.90;;;3.40;100.00;95842.75;4960935;28;20475;-73
2023/11/04 02:52:57;;;;;;;7.03;6.23;;;4.60;96.40;;;3.43;100.00;95838.81;4964196;28;20458;-72
2023/11/04 02:55:25;;;;;;;7.80;6.10;;;4.60;96.70;;;3.43;100.00;95838.03;4979419;28;20472;-72
2023/11/04 02:57:53;;;;;;;9.40;7.03;;;4.60;96.70;;;3.38;100.00;95846.69;4963229;28;20463;-71
2023/11/04 03:00:20;;;;;;;10.13;7.03;;;4.60;96.70;;;3.33;100.00;95850.03;4964963;28;20934;-72
2023/11/04 03:02:47;;;;;;;7.17;6.47;;;4.60;96.50;;;3.28;100.00;95844.56;4963931;28;20445;-73
2023/11/04 03:05:15;;;;;;;9.50;6.83;;;4.50;96.60;;;3.33;100.00;95843.84;4964451;28;20515;-73
2023/11/04 03:07:41;;;;;;;8.30;7.20;;;4.50;97.40;;;3.29;100.00;95848.84;4963188;28;21162;-72
2023/11/04 03:10:10;;;;;;;9.60;6.80;;;4.50;97.10;;;3.22;100.00;95845.41;4960610;28;20460;-74
2023/11/04 03:12:38;;;;;;;9.20;7.30;;;4.50;96.70;;;3.32;100.00;95842.22;4967291;28;20463;-71
2023/11/04 03:15:07;;;;;;;10.83;7.73;;;4.50;96.90;;;3.22;100.00;95837.41;4964186;28;20802;-71
2023/11/04 03:17:35;;;;;;;10.37;6.90;;;4.50;96.70;;;3.20;100.00;95844.81;4960179;28;20471;-71
2023/11/04 03:20:04;;;;;;;10.00;7.30;;;4.40;96.80;;;3.18;100.00;95837.03;4961752;28;20468;-72
2023/11/04 03:22:31;;;;;;;12.13;7.53;;;4.40;97.20;;;3.17;100.00;95834.59;4963494;28;20494;-72
2023/11/04 03:24:58;;;;;;;9.03;7.20;;;4.40;97.00;;;3.15;100.00;95837.47;4961566;28;20456;-71
2023/11/04 03:27:25;;;;;;;17.27;7.77;;;4.40;97.30;;;3.08;100.00;95842.88;4960956;28;20477;-72
2023/11/04 03:29:54;;;;;;;9.20;7.87;;;4.30;97.00;;;2.97;100.00;95832.97;4968567;28;20499;-72
2023/11/04 03:32:21;;;;;;;9.47;7.10;;;4.30;97.20;;;3.00;100.00;95840.53;4963234;28;20593;-72
2023/11/04 03:34:49;;;;;;;11.20;7.97;;;4.30;97.30;;;3.02;100.00;95846.44;4966808;28;20551;-72
2023/11/04 03:37:16;;;;;;;9.23;7.13;;;4.30;97.60;;;3.00;100.00;95840.53;4965833;28;20470;-74
2023/11/04 03:39:43;;;;;;;8.60;7.70;;;4.30;97.80;;;3.00;100.00;95839.69;4965679;28;20507;-73
2023/11/04 03:42:10;;;;;;;10.87;7.90;;;4.20;98.00;;;2.98;100.00;95842.59;4966346;28;20455;-72
2023/11/04 03:44:37;;;;;;;9.67;7.87;;;4.20;97.80;;;2.97;100.00;95840.97;4965065;28;20456;-72
2023/11/04 03:47:07;;;;;;;13.50;8.63;;;4.20;97.90;;;2.96;100.00;95842.81;4965142;28;20472;-73
2023/11/04 03:49:34;;;;;;;11.77;8.43;;;4.20;97.90;;;2.95;100.00;95832.34;4967603;28;20541;-72
2023/11/04 03:52:02;;;;;;;10.63;8.27;;;4.20;98.10;;;2.46;100.00;95766.34;4961324;28;20449;-73
2023/11/04 03:54:31;;;;;;;12.10;7.90;;;4.10;97.90;;;2.78;100.00;95811.56;4966364;28;20843;-72
2023/11/04 03:56:58;;;;;;;14.60;9.37;;;4.10;98.20;;;2.81;100.00;95829.84;4963593;28;20797;-72
2023/11/04 03:59:25;;;;;;;12.20;9.47;;;4.10;98.30;;;2.87;100.00;95829.97;4969512;28;20455;-72
2023/11/04 04:01:52;;;;;;;9.50;8.23;;;4.10;98.80;;;2.82;100.00;95834.13;4957332;28;20488;-72
2023/11/04 04:04:21;;;;;;;10.93;8.63;;;4.00;98.70;;;2.81;100.00;95832.50;4968498;28;20462;-72
2023/11/04 04:06:49;;;;;;;15.83;9.57;;;4.00;98.90;;;2.88;100.00;95836.94;4961699;28;20480;-72
2023/11/04 04:09:16;;;;;;;12.07;8.50;;;4.10;99.50;;;2.90;100.00;95834.88;4965032;28;20547;-72
2023/11/04 04:11:43;;;;;;;15.40;8.80;;;4.10;99.60;;;2.89;100.00;95833.25;4963383;28;21026;-71
2023/11/04 04:14:11;;;;;;;12.23;9.00;;;4.10;99.20;;;2.89;100.00;95830.56;4963923;28;20468;-70
2023/11/04 04:16:38;;;;;;;12.70;9.30;;;4.10;99.30;;;2.86;100.00;95823.81;4956751;28;21034;-72
2023/11/04 04:19:05;;;;;;;13.07;9.73;;;4.10;99.10;;;2.90;100.00;95821.53;4967144;28;20460;-71
2023/11/04 04:21:33;;;;;;;13.40;9.30;;;4.20;99.30;;;2.89;100.00;95820.72;4964322;28;20451;-73
2023/11/04 04:24:00;;;;;;;12.30;9.50;;;4.20;99.00;;;2.87;100.00;95813.97;4978938;28;20441;-72
2023/11/04 04:26:28;;;;;;;14.77;9.17;;;4.10;99.00;;;2.96;100.00;95812.66;4965008;28;21167;-71
2023/11/04 04:28:55;;;;;;;17.27;9.53;;;4.20;99.40;;;2.90;100.00;95803.69;4966094;28;20488;-72
2023/11/04 04:31:23;;;;;;;12.27;9.30;;;4.20;98.90;;;2.94;100.00;95801.38;4965171;28;20628;-71
2023/11/04 04:33:50;;;;;;;14.60;10.37;;;4.20;98.50;;;2.90;100.00;95809.03;4965951;28;20457;-73
2023/11/04 04:36:17;;;;;;;12.60;9.70;;;4.10;98.20;;;2.77;100.00;95785.94;4967591;28;20940;-73
2023/11/04 04:38:46;;;;;;;11.47;9.47;;;4.10;98.40;;;2.92;100.00;95800.78;4966350;28;20577;-72
2023/11/04 04:41:13;;;;;;;13.67;10.03;;;4.10;98.90;;;2.87;100.00;95792.63;4963881;28;21357;-71
2023/11/04 04:43:40;;;;;;;13.60;9.20;;;4.10;98.70;;;2.92;100.00;95793.59;4966712;28;20472;-72
2023/11/04 04:46:07;;;;;;;12.87;9.73;;;4.20;98.90;;;2.81;100.00;95778.31;4958905;28;20468;-72
2023/11/04 04:48:35;;;;;;;14.40;9.80;;;4.10;98.60;;;2.89;100.00;95793.22;4969592;28;21306;-72
2023/11/04 04:51:03;;;;;;;13.70;9.67;;;4.10;98.60;;;2.93;100.00;95789.91;4967422;28;20485;-71
2023/11/04 04:53:30;;;;;;;14.53;10.40;;;4.10;99.20;;;2.94;100.00;95788.88;4971504;28;20460;-72
2023/11/04 04:55:59;;;;;;;14.30;10.90;;;4.20;99.30;;;3.04;100.00;95783.00;4966424;28;21260;-72
2023/11/04 04:58:26;;;;;;;14.53;11.10;;;4.30;99.50;;;3.09;100.00;95774.34;4965534;28;20457;-73
2023/11/04 05:00:53;;;;;;;15.27;10.80;;;4.30;99.20;;;3.21;100.00;95777.06;4965154;28;20467;-74
2023/11/04 05:03:20;;;;;;;14.37;10.23;;;4.40;98.90;;;3.29;100.00;95779.44;4967253;28;20500;-74
2023/11/04 05:05:48;;;;;;;14.13;10.70;;;4.50;98.90;;;2.93;100.00;95706.38;4967819;28;20819;-72
2023/11/04 05:08:15;;;;;;;15.20;10.33;;;4.60;98.50;;;3.38;100.00;95772.75;4966650;28;20469;-73
2023/11/04 05:10:42;;;;;;;14.30;11.03;;;4.60;97.80;;;3.47;100.00;95770.56;4955123;28;20463;-72
2023/11/04 05:13:10;;;;;;;12.50;10.20;;;4.70;97.50;;;3.24;100.00;95717.91;4958522;28;20506;-74
2023/11/04 05:15:38;;;;;;;12.70;11.10;;;4.70;97.30;;;3.62;100.00;95762.19;4959467;28;20984;-73
2023/11/04 05:18:05;;;;;;;14.47;9.90;;;4.80;96.70;;;3.75;100.00;95761.16;4965972;28;20461;-72
2023/11/04 05:20:32;;;;;;;13.00;10.17;;;4.90;96.20;;;3.76;100.00;95767.34;4960938;28;20459;-72
2023/11/04 05:22:59;;;;;;;14.93;10.70;;;4.90;95.50;;;3.83;100.00;95762.72;4962323;28;20508;-73
2023/11/04 05:25:27;;;;;;;11.13;9.47;;;5.00;95.00;;;3.98;100.00;95770.31;4967945;28;20479;-72
2023/11/04 05:27:54;;;;;;;12.90;10.23;;;5.10;94.70;;;3.94;100.00;95767.28;4964300;28;20468;-72
2023/11/04 05:30:23;;;;;;;12.23;9.23;;;5.10;94.00;;;4.00;100.00;95768.22;4966570;28;20483;-73
2023/11/04 05:32:50;;;;;;;11.83;10.60;;;5.20;93.80;;;3.97;100.00;95747.31;4966809;28;20456;-72
2023/11/04 05:35:18;;;;;;;11.70;9.80;;;5.20;93.20;;;4.07;100.00;95749.41;4969493;28;20456;-71
2023/11/04 05:37:45;;;;;;;11.63;8.33;;;5.20;93.10;;;4.14;100.00;95758.13;4965914;28;20464;-73
2023/11/04 05:40:12;;;;;;;12.90;9.10;;;5.30;92.70;;;4.15;100.00;95741.03;4968691;28;21015;-72
2023/11/04 05:42:40;;;;;;;9.93;8.83;;;5.30;92.60;;;4.12;100.00;95738.84;4960419;28;20510;-72
2023/11/04 05:45:08;;;;;;;10.53;9.23;;;5.40;92.30;;;4.19;100.00;95744.91;4966668;28;20457;-73
2023/11/04 05:47:37;;;;;;;8.90;8.00;;;5.40;92.00;;;4.16;100.00;95740.00;4966975;28;20933;-71
2023/11/04 05:50:05;;;;;;;11.40;8.60;;;5.40;92.00;;;4.25;100.00;95737.84;4967460;28;21031;-72
2023/11/04 05:52:32;;;;;;;11.30;9.53;;;5.40;92.20;;;4.22;100.00;95739.09;4967365;28;21040;-71
2023/11/04 05:55:00;;;;;;;11.80;8.47;;;5.40;92.00;;;4.31;100.00;95741.41;4966484;28;20989;-72
2023/11/04 05:57:27;;;;;;;9.60;8.60;;;5.50;91.80;;;4.35;100.00;95740.72;4962858;28;20518;-72
2023/11/04 05:59:54;;;;;;;9.17;8.27;;;5.50;91.40;;;4.39;99.71;95728.50;4967381;28;20467;-72
2023/11/04 06:02:21;;;;;;;8.93;8.03;;;5.60;91.40;;;4.36;99.62;95728.19;4961644;28;20465;-71
2023/11/04 06:04:50;;;;;;;8.60;7.23;;;5.60;91.20;;;4.34;100.00;95727.59;4964927;28;20456;-72
2023/11/04 06:07:18;;;;;;;11.63;8.10;;;5.50;91.10;;;4.31;99.65;95714.69;4964643;28;20552;-73
2023/11/04 06:09:45;;;;;;;8.70;6.93;;;5.50;90.90;;;4.15;100.00;95719.66;4965024;28;20476;-73
2023/11/04 06:12:14;;;;;;;9.60;6.90;;;5.40;91.00;;;4.11;100.00;95721.19;4963957;28;20459;-72
2023/11/04 06:14:41;;;;;;;8.40;7.50;;;5.30;91.50;;;3.92;100.00;95717.78;4958632;28;20457;-73
2023/11/04 06:17:09;;;;;;;9.63;7.60;;;5.20;91.60;;;3.99;100.00;95723.84;4964751;28;20461;-73
2023/11/04 06:19:36;;;;;;;9.27;7.63;;;5.20;91.90;;;4.03;100.00;95716.97;4962234;28;20456;-72
2023/11/04 06:22:05;;;;;;;9.03;7.40;;;5.20;92.30;;;4.01;100.00;95699.53;4967187;28;20472;-72
2023/11/04 06:24:33;;;;;;;9.63;7.40;;;5.20;92.20;;;4.15;100.00;95706.31;4961577;28;20537;-73
2023/11/04 06:27:00;;;;;;;9.83;7.77;;;5.30;92.10;;;4.22;100.00;95712.38;4963985;28;20524;-73
2023/11/04 06:29:27;;;;;;;9.03;7.40;;;5.40;91.70;;;4.30;99.77;95700.50;4965189;28;20480;-72
2023/11/04 06:31:54;;;;;;;8.70;7.00;;;5.50;91.50;;;4.45;98.83;95700.03;4960910;28;20458;-72
2023/11/04 06:34:21;;;;;;;8.33;7.40;;;5.50;91.30;;;4.46;98.57;95696.31;4962918;28;20934;-74
2023/11/04 06:36:51;;;;;;;7.83;7.00;;;5.60;91.00;;;4.51;97.84;95693.78;4957924;28;20465;-73
2023/11/04 06:39:19;;;;;;;7.53;6.23;;;5.70;90.80;;;4.64;97.40;95694.56;4963393;28;20457;-73
2023/11/04 06:41:47;;;;;;;8.03;6.37;;;5.70;90.50;;;4.68;97.53;95693.84;4963634;28;20833;-73
2023/11/04 06:44:14;;;;;;;7.57;6.67;;;5.80;90.30;;;4.69;96.27;95697.34;4957963;28;20458;-72
2023/11/04 06:46:48;;;;;;;8.60;6.40;;;5.80;90.10;;;4.73;96.18;95701.19;4960893;28;20476;-71
2023/11/04 06:49:15;;;;;;;7.17;6.33;;;5.80;89.90;;;4.78;96.66;95695.94;4962167;28;20480;-72
2023/11/04 06:51:42;;;;;;;9.00;6.50;;;5.90;89.80;;;4.73;96.30;95695.81;4958883;28;20461;-71
2023/11/04 06:54:10;;;;;;;7.43;6.13;;;5.90;89.20;;;4.88;95.46;95695.34;4962645;28;20555;-72
2023/11/04 06:56:39;;;;;;;7.07;6.30;;;6.10;89.20;;;4.92;94.59;95682.28;4961287;28;20463;-71
2023/11/04 06:59:06;;;;;;;8.20;6.70;;;6.10;88.60;;;4.92;94.44;95687.63;4963794;28;21153;-71
2023/11/04 07:01:33;;;;;;;6.33;5.63;;;6.10;88.40;;;4.76;95.44;95620.44;4962078;28;20456;-72
2023/11/04 07:04:01;;;;;;;7.80;6.60;;;6.20;89.10;;;5.30;94.25;95685.41;4961656;28;20460;-71
2023/11/04 07:06:28;;;;;;;8.17;6.97;;;6.40;88.90;;;5.31;92.89;95674.47;4965456;28;21144;-74
2023/11/04 07:08:55;;;;;;;7.10;5.67;;;6.50;87.80;;;5.38;93.62;95680.53;4964660;28;20490;-72
2023/11/04 07:11:23;;;;;;;6.80;5.73;;;6.50;87.60;;;5.44;92.87;95678.72;4964022;28;20473;-71
2023/11/04 07:13:51;;;;;;;6.13;5.53;;;6.60;87.30;;;5.57;91.89;95677.63;4957475;28;21250;-72
2023/11/04 07:16:18;;;;;;;5.50;4.90;;;6.60;87.30;;;5.84;91.05;95681.56;4954878;28;20460;-73
2023/11/04 07:18:45;;;;;;;6.47;5.60;;;6.80;87.20;;;5.61;91.40;95673.41;4968175;28;20552;-69
2023/11/04 07:21:13;;;;;;;8.70;5.47;;;6.80;86.50;;;5.66;93.34;95653.94;4968839;28;20460;-69
2023/11/04 07:23:41;;;;;;;6.00;5.13;;;6.80;87.00;;;5.74;90.18;95666.13;4967296;28;20460;-71
2023/11/04 07:26:09;;;;;;;6.23;5.33;;;6.90;86.20;;;5.56;90.16;95670.66;4960485;28;20480;-71
2023/11/04 07:28:36;;;;;;;5.77;4.90;;;6.80;85.50;;;5.83;92.12;95664.66;4960714;28;21037;-68
2023/11/04 07:31:06;;;;;;;6.77;5.60;;;6.90;86.60;;;5.98;89.58;95658.75;4965330;28;20902;-68
2023/11/04 07:33:34;;;;;;;5.43;4.93;;;7.00;86.00;;;5.94;90.78;95650.38;4967830;28;20999;-70
2023/11/04 07:36:02;;;;;;;6.67;4.50;;;7.00;85.50;;;6.20;88.83;95658.84;4964281;28;20449;-68
2023/11/04 07:38:29;;;;;;;5.10;4.60;;;7.20;85.40;;;6.07;87.40;95661.84;4960912;28;20547;-67
2023/11/04 07:40:56;;;;;;;5.90;4.70;;;7.30;84.50;;;6.19;87.09;95661.75;4978125;28;20508;-68
2023/11/04 07:43:24;;;;;;;5.77;5.10;;;7.30;84.50;;;6.50;87.02;95660.34;4967404;28;20457;-69
2023/11/04 07:45:51;;;;;;;6.63;4.80;;;7.50;85.20;;;6.43;86.20;95651.66;4960546;28;20531;-70
2023/11/04 07:48:19;;;;;;;4.70;4.20;;;7.50;84.00;;;6.78;85.33;95647.84;4966157;28;20510;-72
2023/11/04 07:50:47;;;;;;;4.63;4.13;;;7.80;84.20;;;6.75;86.96;95644.84;4960795;28;20492;-71
2023/11/04 07:53:15;;;;;;;4.70;4.30;;;7.70;84.20;;;6.79;85.53;95638.72;4966801;28;20473;-68
2023/11/04 07:55:42;;;;;;;5.03;4.53;;;7.80;83.50;;;6.68;85.02;95636.97;4966339;28;20445;-70
2023/11/04 07:58:09;;;;;;;4.73;4.00;;;7.70;83.40;;;6.39;84.66;95629.06;4980966;28;20465;-68
2023/11/04 08:00:37;;;;;;;6.70;4.13;;;7.60;82.60;;;6.33;85.40;95630.88;4965401;28;20465;-69
2023/11/04 08:03:04;;;;;;;5.10;3.80;;;7.50;83.20;;;6.56;86.25;95626.34;4959898;28;20488;-70
2023/11/04 08:05:36;;;;;;;5.00;4.17;;;7.60;83.60;;;6.60;85.69;95618.63;4969781;28;20519;-68
2023/11/04 08:08:03;;;;;;;4.33;3.93;;;7.60;83.80;;;6.64;83.93;95625.13;4965847;28;20461;-69
2023/11/04 08:10:30;;;;;;;4.87;4.47;;;7.80;82.60;;;6.76;83.08;95617.75;4966931;28;20473;-68
2023/11/04 08:12:57;;;;;;;6.50;4.20;;;7.90;82.30;;;6.83;83.26;95622.94;4964062;28;20505;-70
2023/11/04 08:15:25;;;;;;;10.13;5.00;;;8.00;82.30;;;6.68;82.30;95612.00;4966205;28;20461;-68
2023/11/04 08:17:52;;;;;;;4.40;4.00;;;7.90;81.40;;;6.88;81.83;95619.47;4964119;28;20465;-71
2023/11/04 08:20:19;;;;;;;5.13;4.57;;;8.00;81.60;;;6.63;82.66;95596.66;4977068;28;20457;-71
2023/11/04 08:22:48;;;;;;;3.47;3.17;;;7.90;81.50;;;6.52;82.21;95601.88;4964412;28;20825;-68
2023/11/04 08:25:15;;;;;;;5.93;3.57;;;7.80;81.20;;;6.48;82.26;95606.13;4966591;28;20465;-68
2023/11/04 08:27:43;;;;;;;3.60;3.30;;;7.70;81.40;;;6.30;83.73;95590.34;4958545;28;20970;-68
2023/11/04 08:30:11;;;;;;;5.20;3.87;;;7.50;81.70;;;6.41;82.80;95589.41;4962138;28;20496;-72
2023/11/04 08:32:39;;;;;;;4.73;3.30;;;7.50;81.60;;;6.49;82.61;95591.66;4967727;28;20445;-68
2023/11/04 08:35:07;;;;;;;5.50;3.70;;;7.60;81.40;;;6.69;82.10;95597.53;4961616;28;20972;-69
2023/11/04 08:37:35;;;;;;;3.07;2.77;;;7.70;81.60;;;6.60;81.98;95586.44;4968098;28;20472;-70
2023/11/04 08:40:04;;;;;;;3.57;3.20;;;7.80;81.30;;;6.52;81.57;95580.44;4982825;28;20461;-71
2023/11/04 08:42:33;;;;;;;3.17;2.80;;;7.70;81.00;;;6.63;80.91;95585.94;4964552;28;20957;-70
2023/11/04 08:45:00;;;;;;;3.53;2.90;;;7.70;80.70;;;6.59;80.78;95571.38;4965309;28;20516;-70
2023/11/04 08:47:27;;;;;;;2.83;2.63;;;7.70;80.60;;;6.84;80.66;95578.94;4963016;28;20453;-71
2023/11/04 08:49:55;;;;;;;6.43;3.57;;;7.90;80.90;;;6.67;80.85;95584.34;4964832;28;20473;-69
2023/11/04 08:52:22;;;;;;;3.50;3.20;;;7.80;80.50;;;6.78;80.75;95583.44;4965602;28;20462;-70
2023/11/04 08:54:50;;;;;;;3.47;3.07;;;7.80;80.40;;;6.98;80.95;95581.22;4965178;28;20465;-69
2023/11/04 08:57:20;;;;;;;2.80;2.60;;;8.00;81.10;;;6.94;80.48;95572.84;4961951;28;20458;-68
2023/11/04 08:59:47;;;;;;;3.00;2.80;;;7.90;80.40;;;7.15;79.68;95576.56;4967284;28;20457;-70
2023/11/04 09:02:14;;;;;;;3.50;2.47;;;8.00;80.50;;;7.29;78.41;95560.84;4965259;28;20559;-69
2023/11/04 09:04:41;;;;;;;2.70;2.50;;;8.20;80.00;;;7.44;77.26;95559.34;4961342;28;20982;-67
2023/11/04 09:07:11;;;;;;;2.53;2.33;;;8.40;79.50;;;7.28;77.69;95553.84;4960467;28;20446;-69
2023/11/04 09:09:38;;;;;;;2.80;2.40;;;8.30;79.30;;;7.46;76.81;95551.84;4957108;28;20453;-69
2023/11/04 09:12:06;;;;;;;2.73;2.53;;;8.30;79.40;;;7.52;75.93;95561.59;4964877;28;20457;-68
2023/11/04 09:14:36;;;;;;;3.03;2.80;;;8.40;78.80;;;7.55;75.59;95561.06;4961861;28;20791;-68
2023/11/04 09:17:03;;;;;;;2.70;2.50;;;8.40;78.80;;;7.60;77.21;95544.19;4980476;28;20453;-70
2023/11/04 09:19:30;;;;;;;2.50;2.30;;;8.40;79.10;;;7.88;75.85;95540.34;4960873;28;20469;-70
2023/11/04 09:21:57;;;;;;;3.90;1.53;;;8.60;79.50;;;7.78;73.98;95529.50;4981516;28;20971;-69
2023/11/04 09:24:25;;;;;;;1.70;1.60;;;8.60;78.10;;;7.82;73.94;95530.63;4967589;28;20508;-71
2023/11/04 09:26:53;;;;;;;3.50;2.60;;;8.60;77.70;;;7.97;73.67;95521.03;4960646;28;20465;-71
2023/11/04 09:29:20;;;;;;;2.00;1.90;;;8.70;77.80;;;7.70;73.69;95521.94;4961415;28;21246;-70
2023/11/04 09:31:48;;;;;;;3.80;2.07;;;8.60;77.40;;;7.76;74.13;95529.78;4974380;28;20984;-70
2023/11/04 09:34:16;;;;;;;2.50;1.93;;;8.60;77.40;;;7.83;73.80;95524.19;4964714;28;20469;-69
2023/11/04 09:36:44;;;;;;;4.07;2.57;;;8.60;77.20;;;8.05;72.58;95529.44;4967094;28;20457;-71
2023/11/04 09:39:12;;;;;;;1.60;1.50;;;8.80;77.10;;;7.82;72.26;95527.94;4964794;28;20465;-69
2023/11/04 09:41:39;;;;;;;2.20;2.00;;;8.70;76.40;;;7.86;73.23;95523.66;4959178;28;20539;-69
2023/11/04 09:44:07;;;;;;;1.90;1.80;;;8.60;76.80;;;8.02;71.97;95526.44;4968299;28;20489;-69
2023/11/04 09:46:34;;;;;;;1.70;1.57;;;8.90;76.40;;;8.10;71.48;95522.44;4960540;28;20947;-68
2023/11/04 09:49:03;;;;;;;3.20;1.70;;;8.90;76.10;;;8.00;71.83;95509.75;4982606;28;20464;-77
2023/11/04 09:51:30;;;;;;;2.10;1.63;;;9.00;76.00;;;8.10;73.00;95511.69;4967712;28;21950;-70
2023/11/04 09:54:00;;;;;;;1.60;1.50;;;9.00;76.00;;;8.19;71.66;95513.63;4965025;28;20462;-72
2023/11/04 09:56:27;;;;;;;2.70;1.63;;;9.10;75.50;;;8.22;70.83;95502.34;4963924;28;20515;-71
2023/11/04 09:58:55;;;;;;;2.10;1.40;;;9.10;75.30;;;8.34;70.23;95498.63;4964006;28;20516;-81
2023/11/04 10:01:22;;;;;;;1.83;1.73;;;9.20;74.90;;;8.38;69.86;95483.56;4960854;28;20465;-71
2023/11/04 10:03:50;;;;;;;1.50;1.40;;;9.30;74.50;;;8.68;69.16;95483.97;4960663;28;20559;-70
2023/11/04 10:06:19;;;;;;;2.40;1.43;;;9.50;74.40;;;8.74;66.94;95485.59;4963125;28;20632;-71
2023/11/04 10:08:47;;;;;;;1.50;1.37;;;9.50;73.50;;;8.69;67.95;95483.69;4967658;28;20468;-69
2023/11/04 10:11:14;;;;;;;2.07;1.70;;;9.50;73.30;;;8.66;68.13;95476.16;4962573;28;20886;-69
2023/11/04 10:13:42;;;;;;;1.50;1.40;;;9.60;73.00;;;8.68;67.45;95479.38;4961847;28;20454;-70
2023/11/04 10:16:10;;;;;;;3.80;1.07;;;9.60;72.80;;;8.52;67.42;95456.19;4963811;28;20555;-72
2023/11/04 10:18:38;;;;;;;6.43;1.50;;;9.50;72.70;;;8.77;67.23;95475.09;4979627;28;20497;-74
2023/11/04 10:21:06;;;;;;;3.40;1.33;;;9.60;72.90;;;8.80;66.84;95479.16;4979223;28;20531;-67
2023/11/04 10:23:35;;;;;;;1.50;1.40;;;9.60;72.40;;;9.05;66.60;95461.41;4961730;28;20460;-68
2023/11/04 10:26:03;;;;;;;1.03;0.97;;;9.80;72.30;;;9.03;65.24;95456.31;4964467;28;20527;-68
2023/11/04 10:28:31;;;;;;;1.60;1.43;;;9.90;71.50;;;8.92;64.71;95452.78;4957778;28;20482;-70